createdAt,value
2023-02-27T00:00:59.186Z,-8.50
2023-02-27T00:03:27.300Z,-8.10
2023-02-27T00:05:56.437Z,-7.60
2023-02-27T00:08:24.086Z,-7.80
2023-02-27T00:10:51.654Z,-8.00
2023-02-27T00:13:19.312Z,-8.10
2023-02-27T00:15:48.157Z,-8.20
2023-02-27T00:18:15.688Z,-8.50
2023-02-27T00:20:43.098Z,-7.80
2023-02-27T00:23:13.273Z,-7.70
2023-02-27T00:25:40.676Z,-7.20
2023-02-27T00:28:08.107Z,-7.80
2023-02-27T00:30:35.955Z,-7.70
2023-02-27T00:33:03.829Z,-7.70
2023-02-27T00:35:31.306Z,-8.40
2023-02-27T00:37:58.751Z,-8.10
2023-02-27T00:40:26.457Z,-8.30
2023-02-27T00:42:54.229Z,-8.60
2023-02-27T00:45:21.990Z,-8.60
2023-02-27T00:47:49.392Z,-8.70
2023-02-27T00:50:16.814Z,-8.50
2023-02-27T00:52:44.323Z,-8.30
2023-02-27T00:55:12.236Z,-8.40
2023-02-27T00:57:40.583Z,-8.30
2023-02-27T01:00:09.334Z,-8.40
2023-02-27T01:02:36.920Z,-8.10
2023-02-27T01:05:04.471Z,-7.40
2023-02-27T01:07:32.064Z,-8.00
2023-02-27T01:09:59.401Z,-8.30
2023-02-27T01:12:26.787Z,-8.20
2023-02-27T01:14:54.302Z,-8.20
2023-02-27T01:17:21.793Z,-8.30
2023-02-27T01:19:49.164Z,-8.80
2023-02-27T01:22:16.713Z,-8.60
2023-02-27T01:24:44.220Z,-8.80
2023-02-27T01:27:11.874Z,-9.00
2023-02-27T01:29:39.282Z,-8.70
2023-02-27T01:32:06.751Z,-8.90
2023-02-27T01:34:37.218Z,-9.00
2023-02-27T01:37:04.595Z,-8.90
2023-02-27T01:39:33.178Z,-8.80
2023-02-27T01:42:01.335Z,-8.90
2023-02-27T01:44:30.713Z,-8.70
2023-02-27T01:46:58.073Z,-8.80
2023-02-27T01:49:32.555Z,-8.70
2023-02-27T01:52:08.177Z,-8.60
2023-02-27T01:54:39.272Z,-8.70
2023-02-27T01:57:07.475Z,-8.50
2023-02-27T01:59:37.192Z,-9.00
2023-02-27T02:02:14.404Z,-9.30
2023-02-27T02:04:43.660Z,-10.00
2023-02-27T02:07:17.025Z,-9.50
2023-02-27T02:09:51.205Z,-9.40
2023-02-27T02:12:22.573Z,-9.30
2023-02-27T02:14:50.812Z,-9.30
2023-02-27T02:17:44.409Z,-9.10
2023-02-27T02:20:49.653Z,-8.90
2023-02-27T02:23:44.702Z,-9.00
2023-02-27T02:26:31.111Z,-9.00
2023-02-27T02:29:30.827Z,-9.20
2023-02-27T02:32:19.693Z,-9.00
2023-02-27T02:35:25.853Z,-8.80
2023-02-27T02:38:21.130Z,-8.90
2023-02-27T02:41:16.046Z,-8.60
2023-02-27T02:43:52.242Z,-9.10
2023-02-27T02:46:53.886Z,-8.70
2023-02-27T02:49:51.746Z,-8.70
2023-02-27T02:52:59.108Z,-7.80
2023-02-27T02:55:49.845Z,-8.80
2023-02-27T02:58:44.570Z,-8.60
2023-02-27T03:01:16.653Z,-8.70
2023-02-27T03:04:28.524Z,-8.90
2023-02-27T03:07:24.913Z,-8.90
2023-02-27T03:10:05.258Z,-8.90
2023-02-27T03:12:34.441Z,-9.40
2023-02-27T03:15:17.032Z,-9.00
2023-02-27T03:18:08.151Z,-9.40
2023-02-27T03:20:43.945Z,-9.50
2023-02-27T03:23:22.298Z,-9.40
2023-02-27T03:25:51.462Z,-9.30
2023-02-27T03:28:24.386Z,-9.50
2023-02-27T03:31:10.126Z,-9.40
2023-02-27T03:33:54.604Z,-9.20
2023-02-27T03:36:37.830Z,-8.50
2023-02-27T03:39:21.580Z,-9.50
2023-02-27T03:42:18.942Z,-9.20
2023-02-27T03:45:04.983Z,-9.20
2023-02-27T03:47:33.869Z,-9.30
2023-02-27T03:50:01.501Z,-9.40
2023-02-27T03:52:30.188Z,-9.40
2023-02-27T03:55:08.092Z,-9.50
2023-02-27T04:00:06.095Z,-9.40
2023-02-27T04:02:33.891Z,-9.00
2023-02-27T04:05:01.180Z,-9.00
2023-02-27T04:07:38.444Z,-8.80
2023-02-27T04:10:31.453Z,-8.80
2023-02-27T04:13:17.461Z,-8.40
2023-02-27T04:16:06.309Z,-8.60
2023-02-27T04:18:48.989Z,-8.70
2023-02-27T04:21:21.277Z,-8.70
2023-02-27T04:23:55.751Z,-8.80
2023-02-27T04:26:33.099Z,-9.10
2023-02-27T04:29:11.598Z,-9.40
2023-02-27T04:31:46.197Z,-9.10
2023-02-27T04:34:42.444Z,-9.20
2023-02-27T04:37:26.072Z,-9.70
2023-02-27T04:40:01.562Z,-9.30
2023-02-27T04:42:35.798Z,-9.10
2023-02-27T04:45:07.882Z,-9.20
2023-02-27T04:47:48.708Z,-9.20
2023-02-27T04:51:02.176Z,-9.10
2023-02-27T04:53:37.891Z,-9.00
2023-02-27T04:56:11.008Z,-9.20
2023-02-27T04:58:42.202Z,-9.80
2023-02-27T05:01:16.941Z,-10.10
2023-02-27T05:03:48.315Z,-8.30
2023-02-27T05:06:17.914Z,-8.80
2023-02-27T05:09:06.546Z,-8.10
2023-02-27T05:11:56.841Z,-8.40
2023-02-27T05:14:46.327Z,-8.30
2023-02-27T05:17:26.247Z,-8.80
2023-02-27T05:19:53.795Z,-8.70
2023-02-27T05:22:30.191Z,-8.60
2023-02-27T05:27:41.319Z,-9.20
2023-02-27T05:30:54.875Z,-9.10
2023-02-27T05:33:38.905Z,-8.70
2023-02-27T05:38:53.736Z,-8.60
2023-02-27T05:41:35.362Z,-9.00
2023-02-27T05:44:16.886Z,-8.30
2023-02-27T05:46:52.244Z,-8.50
2023-02-27T05:49:34.246Z,-9.10
2023-02-27T05:52:04.684Z,-8.40
2023-02-27T05:54:57.067Z,-8.50
2023-02-27T06:00:03.576Z,-8.80
2023-02-27T06:02:31.193Z,-8.80
2023-02-27T06:04:59.817Z,-8.90
2023-02-27T06:07:30.992Z,-8.80
2023-02-27T06:09:59.035Z,-9.10
2023-02-27T06:12:26.829Z,-8.80
2023-02-27T06:14:56.461Z,-8.80
2023-02-27T06:19:57.934Z,-8.10
2023-02-27T06:22:26.903Z,-7.90
2023-02-27T06:24:54.766Z,-8.40
2023-02-27T06:27:22.345Z,-8.00
2023-02-27T06:29:50.145Z,-8.40
2023-02-27T06:32:18.220Z,-8.60
2023-02-27T06:34:48.182Z,-8.20
2023-02-27T06:37:20.268Z,-8.70
2023-02-27T06:39:49.443Z,-8.20
2023-02-27T06:42:17.995Z,-7.90
2023-02-27T06:47:23.255Z,-7.50
2023-02-27T06:49:56.855Z,-7.40
2023-02-27T06:52:30.048Z,-7.10
2023-02-27T06:57:31.350Z,-7.00
2023-02-27T07:00:02.382Z,-7.00
2023-02-27T07:02:31.731Z,-6.80
2023-02-27T07:05:00.773Z,-6.70
2023-02-27T07:07:38.298Z,-6.90
2023-02-27T07:10:08.915Z,-6.30
2023-02-27T07:12:38.676Z,-6.30
2023-02-27T07:15:08.038Z,-6.40
2023-02-27T07:17:38.227Z,-6.50
2023-02-27T07:20:08.546Z,-6.40
2023-02-27T07:22:37.177Z,-6.90
2023-02-27T07:25:07.968Z,-6.10
2023-02-27T07:30:08.869Z,-5.90
2023-02-27T07:32:37.304Z,-5.20
2023-02-27T07:35:05.382Z,-5.60
2023-02-27T07:37:33.728Z,-5.60
2023-02-27T07:40:02.148Z,-5.60
2023-02-27T07:42:30.539Z,-5.50
2023-02-27T07:47:28.439Z,-5.60
2023-02-27T07:50:02.971Z,-5.70
2023-02-27T07:52:31.783Z,-4.70
2023-02-27T07:54:59.876Z,-4.50
2023-02-27T07:57:31.351Z,-5.10
2023-02-27T07:59:59.451Z,-4.90
2023-02-27T08:02:27.101Z,-4.80
2023-02-27T08:04:55.491Z,-5.30
2023-02-27T08:07:23.438Z,-5.30
2023-02-27T08:09:51.940Z,-4.90
2023-02-27T08:12:20.159Z,-4.80
2023-02-27T08:14:48.231Z,-4.80
2023-02-27T08:17:16.674Z,-4.70
2023-02-27T08:19:44.725Z,-5.00
2023-02-27T08:22:15.077Z,-4.40
2023-02-27T08:24:45.418Z,-4.20
2023-02-27T08:27:13.253Z,-3.80
2023-02-27T08:29:41.996Z,-4.20
2023-02-27T08:32:10.189Z,-5.00
2023-02-27T08:34:38.311Z,-3.80
2023-02-27T08:37:06.354Z,-4.00
2023-02-27T08:39:40.267Z,-3.20
2023-02-27T08:42:10.622Z,-3.50
2023-02-27T08:44:38.195Z,-3.00
2023-02-27T08:47:06.357Z,-4.10
2023-02-27T08:49:34.425Z,-4.10
2023-02-27T08:52:04.838Z,-4.40
2023-02-27T08:54:32.458Z,-4.20
2023-02-27T08:57:01.332Z,-4.30
2023-02-27T09:02:02.707Z,-2.90
2023-02-27T09:04:37.959Z,-3.30
2023-02-27T09:07:07.158Z,-3.40
2023-02-27T09:09:34.759Z,-3.40
2023-02-27T09:12:02.323Z,-3.40
2023-02-27T09:14:30.005Z,-3.40
2023-02-27T09:17:00.632Z,-3.90
2023-02-27T09:19:29.792Z,-2.80
2023-02-27T09:21:57.474Z,-3.50
2023-02-27T09:24:25.045Z,-2.90
2023-02-27T09:26:54.368Z,-2.70
2023-02-27T09:29:24.045Z,-2.70
2023-02-27T09:31:52.344Z,-2.20
2023-02-27T09:34:20.102Z,-1.90
2023-02-27T09:36:48.069Z,-2.40
2023-02-27T09:39:15.952Z,-2.30
2023-02-27T09:42:06.735Z,-2.20
2023-02-27T09:45:01.943Z,-2.80
2023-02-27T09:47:50.880Z,-2.50
2023-02-27T09:50:44.747Z,-1.30
2023-02-27T09:53:30.093Z,-2.20
2023-02-27T09:56:05.665Z,-2.20
2023-02-27T09:58:53.826Z,-2.50
2023-02-27T10:01:30.951Z,-2.60
2023-02-27T10:04:29.082Z,-2.80
2023-02-27T10:07:02.997Z,-2.30
2023-02-27T10:09:43.045Z,-2.40
2023-02-27T10:12:31.398Z,-2.60
2023-02-27T10:15:32.781Z,-1.80
2023-02-27T10:18:07.102Z,-1.70
2023-02-27T10:20:51.305Z,-1.90
2023-02-27T10:23:21.474Z,-1.60
2023-02-27T10:25:52.107Z,-1.70
2023-02-27T10:28:21.263Z,-0.40
2023-02-27T10:30:52.595Z,-0.30
2023-02-27T10:33:44.564Z,0.50
2023-02-27T10:36:20.747Z,-1.70
2023-02-27T10:39:07.904Z,-1.20
2023-02-27T10:41:36.735Z,-2.60
2023-02-27T10:44:05.830Z,-1.40
2023-02-27T10:46:36.831Z,-1.10
2023-02-27T10:49:21.033Z,-2.20
2023-02-27T10:52:10.735Z,-1.70
2023-02-27T10:54:40.647Z,-0.70
2023-02-27T10:57:24.448Z,-1.00
2023-02-27T10:59:56.127Z,-1.00
2023-02-27T11:02:28.249Z,-1.40
2023-02-27T11:04:58.754Z,-0.70
2023-02-27T11:07:39.403Z,-0.70
2023-02-27T11:10:29.055Z,-0.60
2023-02-27T11:13:02.390Z,-0.60
2023-02-27T11:15:38.822Z,-0.60
2023-02-27T11:18:29.331Z,-1.20
2023-02-27T11:21:24.088Z,-0.60
2023-02-27T11:24:06.561Z,-0.10
2023-02-27T11:26:57.573Z,0.00
2023-02-27T11:29:27.362Z,-1.00
2023-02-27T11:35:59.337Z,-0.20
2023-02-27T11:38:36.207Z,0.40
2023-02-27T11:41:06.784Z,-0.40
2023-02-27T11:43:43.862Z,0.10
2023-02-27T11:46:46.229Z,0.20
2023-02-27T11:49:23.995Z,0.40
2023-02-27T11:52:09.271Z,0.40
2023-02-27T11:54:45.564Z,0.30
2023-02-27T11:57:22.440Z,0.70
2023-02-27T12:00:03.833Z,0.70
2023-02-27T12:02:39.370Z,1.10
2023-02-27T12:05:14.844Z,0.40
2023-02-27T12:08:03.498Z,1.00
2023-02-27T12:11:13.229Z,1.00
2023-02-27T12:13:48.542Z,0.90
2023-02-27T12:19:15.962Z,0.70
2023-02-27T12:21:58.632Z,1.10
2023-02-27T12:24:32.608Z,1.40
2023-02-27T12:27:11.879Z,0.90
2023-02-27T12:29:49.617Z,0.70
2023-02-27T12:32:36.864Z,0.70
2023-02-27T12:35:17.717Z,1.20
2023-02-27T12:37:45.652Z,1.50
2023-02-27T12:43:02.373Z,1.50
2023-02-27T12:45:45.507Z,1.80
2023-02-27T12:48:31.841Z,1.50
2023-02-27T12:51:02.179Z,1.30
2023-02-27T12:53:54.781Z,0.70
2023-02-27T12:56:26.574Z,1.40
2023-02-27T12:59:27.381Z,1.70
2023-02-27T13:02:20.726Z,1.30
2023-02-27T13:05:04.369Z,0.80
2023-02-27T13:07:38.806Z,2.80
2023-02-27T13:10:45.695Z,2.10
2023-02-27T13:13:24.861Z,1.10
2023-02-27T13:16:00.832Z,1.30
2023-02-27T13:18:40.138Z,1.60
2023-02-27T13:21:15.052Z,1.60
2023-02-27T13:23:51.725Z,2.70
2023-02-27T13:27:00.654Z,1.40
2023-02-27T13:29:49.812Z,2.20
2023-02-27T13:33:01.606Z,2.10
2023-02-27T13:41:25.775Z,2.40
2023-02-27T13:44:00.691Z,2.00
2023-02-27T13:46:28.889Z,1.90
2023-02-27T13:49:05.421Z,1.80
2023-02-27T13:51:35.974Z,1.90
2023-02-27T13:54:25.695Z,2.00
2023-02-27T13:56:57.948Z,2.20
2023-02-27T13:59:32.409Z,3.00
2023-02-27T14:07:02.644Z,2.00
2023-02-27T14:09:36.247Z,2.80
2023-02-27T14:12:06.958Z,2.60
2023-02-27T14:14:45.346Z,1.40
2023-02-27T14:17:34.461Z,1.90
2023-02-27T14:20:21.753Z,2.90
2023-02-27T14:23:21.989Z,2.10
2023-02-27T14:26:17.368Z,2.10
2023-02-27T14:28:56.068Z,2.70
2023-02-27T14:31:29.079Z,2.40
2023-02-27T14:34:00.925Z,2.30
2023-02-27T14:36:31.449Z,2.20
2023-02-27T14:39:01.015Z,3.40
2023-02-27T14:41:31.268Z,2.40
2023-02-27T14:43:59.457Z,2.20
2023-02-27T14:46:34.922Z,3.10
2023-02-27T14:49:17.571Z,2.20
2023-02-27T14:51:45.385Z,3.10
2023-02-27T14:54:21.636Z,2.20
2023-02-27T14:57:01.409Z,2.50
2023-02-27T14:59:42.037Z,1.70
2023-02-27T15:02:20.208Z,2.90
2023-02-27T15:04:48.151Z,2.90
2023-02-27T15:07:28.831Z,2.30
2023-02-27T15:09:59.285Z,2.80
2023-02-27T15:12:28.633Z,3.20
2023-02-27T15:15:02.315Z,2.50
2023-02-27T15:17:39.604Z,3.20
2023-02-27T15:20:30.289Z,2.10
2023-02-27T15:23:02.740Z,2.00
2023-02-27T15:25:39.878Z,2.30
2023-02-27T15:28:18.067Z,3.20
2023-02-27T15:30:50.432Z,2.20
2023-02-27T15:33:18.684Z,2.40
2023-02-27T15:35:46.880Z,2.30
2023-02-27T15:38:29.139Z,1.50
2023-02-27T15:40:58.396Z,2.40
2023-02-27T15:43:28.323Z,3.40
2023-02-27T15:45:58.447Z,3.20
2023-02-27T15:48:26.208Z,2.20
2023-02-27T15:51:01.243Z,1.80
2023-02-27T15:53:34.256Z,3.10
2023-02-27T15:56:06.651Z,2.10
2023-02-27T15:58:36.652Z,1.80
2023-02-27T16:01:13.235Z,2.20
2023-02-27T16:03:53.092Z,3.50
2023-02-27T16:09:15.023Z,1.80
2023-02-27T16:11:42.444Z,2.10
2023-02-27T16:14:42.817Z,1.80
2023-02-27T16:17:26.799Z,1.90
2023-02-27T16:22:23.475Z,2.00
2023-02-27T16:24:51.878Z,1.80
2023-02-27T16:27:26.548Z,2.10
2023-02-27T16:29:56.077Z,2.00
2023-02-27T16:32:30.255Z,1.90
2023-02-27T16:35:16.819Z,1.70
2023-02-27T16:37:46.036Z,1.90
2023-02-27T16:40:15.044Z,2.80
2023-02-27T16:42:43.376Z,1.80
2023-02-27T16:45:16.484Z,2.20
2023-02-27T16:47:44.490Z,1.90
2023-02-27T16:50:25.267Z,2.00
2023-02-27T16:52:52.736Z,2.10
2023-02-27T16:55:20.337Z,1.90
2023-02-27T16:57:47.804Z,1.30
2023-02-27T17:00:16.853Z,2.00
2023-02-27T17:02:44.611Z,2.10
2023-02-27T17:05:12.110Z,2.10
2023-02-27T17:07:39.547Z,1.90
2023-02-27T17:10:07.353Z,2.10
2023-02-27T17:12:35.114Z,2.00
2023-02-27T17:15:02.582Z,1.60
2023-02-27T17:17:29.879Z,1.70
2023-02-27T17:19:57.282Z,2.10
2023-02-27T17:22:24.750Z,2.10
2023-02-27T17:24:52.302Z,2.20
2023-02-27T17:27:19.655Z,2.10
2023-02-27T17:29:47.014Z,2.20
2023-02-27T17:32:14.777Z,2.40
2023-02-27T17:34:42.256Z,3.20
2023-02-27T17:37:09.631Z,3.40
2023-02-27T17:39:38.145Z,2.40
2023-02-27T17:42:05.666Z,2.30
2023-02-27T17:44:32.985Z,1.90
2023-02-27T17:47:00.551Z,2.30
2023-02-27T17:49:27.868Z,2.30
2023-02-27T17:51:55.371Z,3.50
2023-02-27T17:54:22.846Z,2.60
2023-02-27T17:56:50.405Z,2.40
2023-02-27T17:59:18.017Z,2.30
2023-02-27T18:01:45.480Z,0.60
2023-02-27T18:04:14.079Z,3.10
2023-02-27T18:06:41.431Z,2.50
2023-02-27T18:09:08.827Z,2.50
2023-02-27T18:11:37.611Z,2.40
2023-02-27T18:14:06.005Z,2.40
2023-02-27T18:16:34.083Z,3.60
2023-02-27T18:19:06.509Z,2.40
2023-02-27T18:21:34.559Z,3.30
2023-02-27T18:24:02.616Z,3.70
2023-02-27T18:26:31.858Z,2.30
2023-02-27T18:29:05.479Z,3.40
2023-02-27T18:31:36.413Z,3.20
2023-02-27T18:34:04.101Z,3.60
2023-02-27T18:36:32.654Z,2.40
2023-02-27T18:39:01.157Z,3.70
2023-02-27T18:41:29.399Z,3.10
2023-02-27T18:43:58.387Z,2.80
2023-02-27T18:46:26.098Z,2.40
2023-02-27T18:48:53.882Z,3.30
2023-02-27T18:51:21.319Z,3.40
2023-02-27T18:53:49.709Z,3.20
2023-02-27T18:56:21.591Z,3.00
2023-02-27T18:58:50.216Z,3.30
2023-02-27T19:01:22.717Z,3.00
2023-02-27T19:03:51.336Z,3.80
2023-02-27T19:06:18.869Z,2.40
2023-02-27T19:08:46.657Z,2.20
2023-02-27T19:11:33.679Z,3.10
2023-02-27T19:14:03.110Z,2.90
2023-02-27T19:16:31.565Z,3.20
2023-02-27T19:21:28.780Z,2.40
2023-02-27T19:23:56.476Z,3.00
2023-02-27T19:26:24.669Z,2.20
2023-02-27T19:28:54.209Z,2.30
2023-02-27T19:33:51.395Z,2.20
2023-02-27T19:36:21.118Z,2.20
2023-02-27T19:38:49.199Z,2.80
2023-02-27T19:41:17.730Z,2.20
2023-02-27T19:43:45.497Z,3.20
2023-02-27T19:46:19.248Z,3.20
2023-02-27T19:48:49.760Z,2.20
2023-02-27T19:51:17.396Z,2.90
2023-02-27T19:53:48.344Z,1.90
2023-02-27T19:56:21.864Z,2.70
2023-02-27T19:58:49.979Z,2.00
2023-02-27T20:01:25.384Z,2.50
2023-02-27T20:03:52.794Z,3.40
2023-02-27T20:06:23.824Z,2.50
2023-02-27T20:11:21.682Z,1.90
2023-02-27T20:13:50.621Z,2.00
2023-02-27T20:16:22.409Z,2.40
2023-02-27T20:18:50.244Z,3.60
2023-02-27T20:21:23.119Z,1.60
2023-02-27T20:23:52.014Z,2.70
2023-02-27T20:26:22.482Z,1.90
2023-02-27T20:31:22.163Z,1.70
2023-02-27T20:33:49.631Z,2.30
2023-02-27T20:36:17.369Z,1.90
2023-02-27T20:38:45.457Z,2.60
2023-02-27T20:41:19.217Z,1.80
2023-02-27T20:43:46.645Z,3.20
2023-02-27T20:46:23.523Z,1.90
2023-02-27T20:48:52.031Z,1.80
2023-02-27T20:51:23.114Z,1.60
2023-02-27T20:53:53.815Z,3.30
2023-02-27T20:56:25.738Z,3.30
2023-02-27T20:58:53.821Z,3.10
2023-02-27T21:01:21.652Z,1.60
2023-02-27T21:03:51.868Z,3.20
2023-02-27T21:06:19.659Z,3.60
2023-02-27T21:08:49.744Z,1.60
2023-02-27T21:11:29.411Z,2.00
2023-02-27T21:13:59.700Z,1.70
2023-02-27T21:16:27.265Z,2.40
2023-02-27T21:18:56.873Z,1.60
2023-02-27T21:21:30.524Z,2.20
2023-02-27T21:23:58.674Z,3.30
2023-02-27T21:26:33.948Z,2.70
2023-02-27T21:31:33.790Z,1.80
2023-02-27T21:34:04.628Z,2.40
2023-02-27T21:36:37.952Z,1.70
2023-02-27T21:39:07.408Z,2.00
2023-02-27T21:41:35.545Z,2.90
2023-02-27T21:44:06.156Z,1.70
2023-02-27T21:46:34.581Z,2.60
2023-02-27T21:49:02.177Z,2.20
2023-02-27T21:51:40.042Z,1.70
2023-02-27T21:56:38.593Z,1.80
2023-02-27T21:59:06.434Z,1.70
2023-02-27T22:01:34.559Z,1.50
2023-02-27T22:04:02.432Z,2.40
2023-02-27T22:06:32.416Z,1.70
2023-02-27T22:09:02.840Z,1.70
2023-02-27T22:11:30.932Z,2.00
2023-02-27T22:13:58.622Z,3.20
2023-02-27T22:16:25.979Z,2.40
2023-02-27T22:18:53.741Z,1.80
2023-02-27T22:21:25.430Z,1.80
2023-02-27T22:23:55.349Z,3.20
2023-02-27T22:26:28.320Z,2.60
2023-02-27T22:28:57.530Z,2.10
2023-02-27T22:31:27.827Z,3.00
2023-02-27T22:33:59.097Z,2.70
2023-02-27T22:36:29.418Z,2.50
2023-02-27T22:38:57.914Z,2.00
2023-02-27T22:43:56.489Z,1.90
2023-02-27T22:46:30.845Z,2.00
2023-02-27T22:49:01.958Z,3.10
2023-02-27T22:51:29.867Z,3.70
2023-02-27T22:53:59.818Z,1.90
2023-02-27T22:56:27.318Z,1.50
2023-02-27T22:58:54.680Z,2.00
2023-02-27T23:01:29.088Z,2.00
2023-02-27T23:03:59.292Z,2.10
2023-02-27T23:06:32.627Z,2.80
2023-02-27T23:09:00.553Z,2.20
2023-02-27T23:11:29.348Z,2.00
2023-02-27T23:13:57.488Z,2.10
2023-02-27T23:16:25.270Z,1.90
2023-02-27T23:18:55.039Z,3.30
2023-02-27T23:21:30.173Z,2.80
2023-02-27T23:23:58.275Z,2.50
2023-02-27T23:26:28.682Z,2.00
2023-02-27T23:28:57.265Z,3.10
2023-02-27T23:31:24.873Z,2.00
2023-02-27T23:33:52.738Z,2.10
2023-02-27T23:36:20.101Z,1.70
2023-02-27T23:41:17.729Z,2.10
2023-02-27T23:44:04.195Z,2.20
2023-02-27T23:46:31.972Z,2.60
2023-02-27T23:49:00.115Z,3.30
2023-02-27T23:51:30.287Z,2.80
2023-02-27T23:53:58.448Z,3.40
2023-02-27T23:56:28.656Z,2.20
2023-02-27T23:58:58.516Z,3.90
